sensor_id;sensor_type;location;lat;lon;timestamp;P1;durP1;ratioP1;P2;durP2;ratioP2
69220;SDS011;56331;51.992;20.910;2023-03-14T00:00:04;10.60;;;5.67;;
69220;SDS011;56331;51.992;20.910;2023-03-14T00:02:36;13.10;;;5.97;;
69220;SDS011;56331;51.992;20.910;2023-03-14T00:05:03;10.95;;;5.50;;
69220;SDS011;56331;51.992;20.910;2023-03-14T00:07:35;13.60;;;5.50;;
69220;SDS011;56331;51.992;20.910;2023-03-14T00:10:04;11.48;;;5.67;;
69220;SDS011;56331;51.992;20.910;2023-03-14T00:12:32;14.33;;;6.07;;
69220;SDS011;56331;51.992;20.910;2023-03-14T00:14:59;10.93;;;5.53;;
69220;SDS011;56331;51.992;20.910;2023-03-14T00:19:55;11.05;;;5.70;;
69220;SDS011;56331;51.992;20.910;2023-03-14T00:22:22;10.35;;;5.47;;
69220;SDS011;56331;51.992;20.910;2023-03-14T00:24:48;10.05;;;4.87;;
69220;SDS011;56331;51.992;20.910;2023-03-14T00:27:15;10.63;;;5.17;;
69220;SDS011;56331;51.992;20.910;2023-03-14T00:29:42;11.00;;;5.20;;
69220;SDS011;56331;51.992;20.910;2023-03-14T00:32:09;7.85;;;4.65;;
69220;SDS011;56331;51.992;20.910;2023-03-14T00:34:35;8.83;;;4.83;;
69220;SDS011;56331;51.992;20.910;2023-03-14T00:37:02;9.28;;;5.20;;
69220;SDS011;56331;51.992;20.910;2023-03-14T00:39:28;10.08;;;5.30;;
69220;SDS011;56331;51.992;20.910;2023-03-14T00:41:54;9.98;;;5.80;;
69220;SDS011;56331;51.992;20.910;2023-03-14T00:44:21;9.33;;;5.00;;
69220;SDS011;56331;51.992;20.910;2023-03-14T00:46:47;9.03;;;5.08;;
69220;SDS011;56331;51.992;20.910;2023-03-14T00:49:13;8.33;;;4.90;;
69220;SDS011;56331;51.992;20.910;2023-03-14T00:51:40;10.43;;;4.87;;
69220;SDS011;56331;51.992;20.910;2023-03-14T00:54:06;9.43;;;5.35;;
69220;SDS011;56331;51.992;20.910;2023-03-14T00:56:32;9.35;;;5.20;;
69220;SDS011;56331;51.992;20.910;2023-03-14T00:58:59;8.65;;;5.12;;
69220;SDS011;56331;51.992;20.910;2023-03-14T01:01:25;8.95;;;5.30;;
69220;SDS011;56331;51.992;20.910;2023-03-14T01:03:52;8.13;;;4.60;;
69220;SDS011;56331;51.992;20.910;2023-03-14T01:06:20;9.45;;;5.37;;
69220;SDS011;56331;51.992;20.910;2023-03-14T01:08:49;8.43;;;5.10;;
69220;SDS011;56331;51.992;20.910;2023-03-14T01:11:20;7.58;;;4.83;;
69220;SDS011;56331;51.992;20.910;2023-03-14T01:13:48;9.43;;;5.03;;
69220;SDS011;56331;51.992;20.910;2023-03-14T01:16:15;8.25;;;4.65;;
69220;SDS011;56331;51.992;20.910;2023-03-14T01:18:43;8.58;;;4.97;;
69220;SDS011;56331;51.992;20.910;2023-03-14T01:21:14;8.68;;;5.17;;
69220;SDS011;56331;51.992;20.910;2023-03-14T01:23:46;9.70;;;4.87;;
69220;SDS011;56331;51.992;20.910;2023-03-14T01:26:14;8.80;;;4.58;;
69220;SDS011;56331;51.992;20.910;2023-03-14T01:28:44;8.08;;;4.78;;
69220;SDS011;56331;51.992;20.910;2023-03-14T01:31:11;7.90;;;4.55;;
69220;SDS011;56331;51.992;20.910;2023-03-14T01:33:38;8.28;;;4.28;;
69220;SDS011;56331;51.992;20.910;2023-03-14T01:36:06;7.28;;;4.20;;
69220;SDS011;56331;51.992;20.910;2023-03-14T01:38:34;6.80;;;4.33;;
69220;SDS011;56331;51.992;20.910;2023-03-14T01:41:02;7.58;;;4.40;;
69220;SDS011;56331;51.992;20.910;2023-03-14T01:53:32;7.58;;;4.35;;
69220;SDS011;56331;51.992;20.910;2023-03-14T01:56:00;7.33;;;4.62;;
69220;SDS011;56331;51.992;20.910;2023-03-14T01:58:27;8.60;;;4.83;;
69220;SDS011;56331;51.992;20.910;2023-03-14T02:00:56;6.93;;;4.20;;
69220;SDS011;56331;51.992;20.910;2023-03-14T02:03:25;7.50;;;4.75;;
69220;SDS011;56331;51.992;20.910;2023-03-14T02:05:55;6.95;;;4.22;;
69220;SDS011;56331;51.992;20.910;2023-03-14T02:10:53;7.08;;;3.83;;
69220;SDS011;56331;51.992;20.910;2023-03-14T02:13:19;6.47;;;3.75;;
69220;SDS011;56331;51.992;20.910;2023-03-14T02:15:47;7.10;;;4.03;;
69220;SDS011;56331;51.992;20.910;2023-03-14T02:18:14;5.67;;;3.55;;
69220;SDS011;56331;51.992;20.910;2023-03-14T02:20:47;6.78;;;3.80;;
69220;SDS011;56331;51.992;20.910;2023-03-14T02:23:26;6.45;;;3.90;;
69220;SDS011;56331;51.992;20.910;2023-03-14T02:28:24;7.05;;;3.62;;
69220;SDS011;56331;51.992;20.910;2023-03-14T02:30:50;6.37;;;3.83;;
69220;SDS011;56331;51.992;20.910;2023-03-14T02:33:21;7.80;;;3.95;;
69220;SDS011;56331;51.992;20.910;2023-03-14T02:35:59;6.35;;;4.10;;
69220;SDS011;56331;51.992;20.910;2023-03-14T02:41:03;6.60;;;3.72;;
69220;SDS011;56331;51.992;20.910;2023-03-14T02:43:32;4.85;;;3.10;;
69220;SDS011;56331;51.992;20.910;2023-03-14T02:45:59;6.95;;;4.28;;
69220;SDS011;56331;51.992;20.910;2023-03-14T02:48:30;5.53;;;3.50;;
69220;SDS011;56331;51.992;20.910;2023-03-14T02:51:03;6.35;;;3.70;;
69220;SDS011;56331;51.992;20.910;2023-03-14T02:53:30;6.00;;;3.72;;
69220;SDS011;56331;51.992;20.910;2023-03-14T02:55:58;6.93;;;4.27;;
69220;SDS011;56331;51.992;20.910;2023-03-14T02:58:25;5.72;;;3.77;;
69220;SDS011;56331;51.992;20.910;2023-03-14T03:00:55;6.58;;;3.77;;
69220;SDS011;56331;51.992;20.910;2023-03-14T03:03:21;5.72;;;3.60;;
69220;SDS011;56331;51.992;20.910;2023-03-14T03:05:48;6.12;;;3.50;;
69220;SDS011;56331;51.992;20.910;2023-03-14T03:08:17;5.95;;;3.50;;
69220;SDS011;56331;51.992;20.910;2023-03-14T03:10:44;4.62;;;3.00;;
69220;SDS011;56331;51.992;20.910;2023-03-14T03:13:11;6.50;;;3.50;;
69220;SDS011;56331;51.992;20.910;2023-03-14T03:15:37;5.55;;;3.50;;
69220;SDS011;56331;51.992;20.910;2023-03-14T03:18:04;5.35;;;3.17;;
69220;SDS011;56331;51.992;20.910;2023-03-14T03:20:30;5.92;;;3.22;;
69220;SDS011;56331;51.992;20.910;2023-03-14T03:22:58;5.87;;;3.62;;
69220;SDS011;56331;51.992;20.910;2023-03-14T03:25:27;5.87;;;3.33;;
69220;SDS011;56331;51.992;20.910;2023-03-14T03:27:54;6.25;;;3.35;;
69220;SDS011;56331;51.992;20.910;2023-03-14T03:30:21;5.25;;;3.22;;
69220;SDS011;56331;51.992;20.910;2023-03-14T03:32:47;4.60;;;2.95;;
69220;SDS011;56331;51.992;20.910;2023-03-14T03:35:14;6.65;;;3.58;;
69220;SDS011;56331;51.992;20.910;2023-03-14T03:37:40;5.08;;;3.10;;
69220;SDS011;56331;51.992;20.910;2023-03-14T03:40:07;4.97;;;3.30;;
69220;SDS011;56331;51.992;20.910;2023-03-14T03:42:35;5.70;;;3.55;;
69220;SDS011;56331;51.992;20.910;2023-03-14T03:45:03;4.80;;;3.27;;
69220;SDS011;56331;51.992;20.910;2023-03-14T03:47:30;4.42;;;2.77;;
69220;SDS011;56331;51.992;20.910;2023-03-14T03:49:57;5.20;;;3.25;;
69220;SDS011;56331;51.992;20.910;2023-03-14T03:52:23;5.45;;;3.15;;
69220;SDS011;56331;51.992;20.910;2023-03-14T03:54:49;5.85;;;3.30;;
69220;SDS011;56331;51.992;20.910;2023-03-14T03:57:16;4.33;;;3.00;;
69220;SDS011;56331;51.992;20.910;2023-03-14T03:59:42;4.12;;;3.08;;
69220;SDS011;56331;51.992;20.910;2023-03-14T04:02:09;4.37;;;3.08;;
69220;SDS011;56331;51.992;20.910;2023-03-14T04:04:35;4.70;;;3.12;;
69220;SDS011;56331;51.992;20.910;2023-03-14T04:07:03;4.80;;;3.08;;
69220;SDS011;56331;51.992;20.910;2023-03-14T04:09:30;4.30;;;2.83;;
69220;SDS011;56331;51.992;20.910;2023-03-14T04:11:56;5.40;;;2.98;;
69220;SDS011;56331;51.992;20.910;2023-03-14T04:14:23;4.17;;;2.70;;
69220;SDS011;56331;51.992;20.910;2023-03-14T04:16:49;4.62;;;2.98;;
69220;SDS011;56331;51.992;20.910;2023-03-14T04:19:16;5.03;;;3.00;;
69220;SDS011;56331;51.992;20.910;2023-03-14T04:21:42;5.00;;;3.27;;
69220;SDS011;56331;51.992;20.910;2023-03-14T04:24:10;5.08;;;2.80;;
69220;SDS011;56331;51.992;20.910;2023-03-14T04:26:37;4.70;;;2.98;;
69220;SDS011;56331;51.992;20.910;2023-03-14T04:29:03;4.72;;;2.85;;
69220;SDS011;56331;51.992;20.910;2023-03-14T04:31:30;4.15;;;2.85;;
69220;SDS011;56331;51.992;20.910;2023-03-14T04:33:57;4.12;;;2.75;;
69220;SDS011;56331;51.992;20.910;2023-03-14T04:36:23;3.77;;;2.60;;
69220;SDS011;56331;51.992;20.910;2023-03-14T04:38:49;5.05;;;2.90;;
69220;SDS011;56331;51.992;20.910;2023-03-14T04:41:16;4.28;;;2.80;;
69220;SDS011;56331;51.992;20.910;2023-03-14T04:43:42;4.40;;;2.77;;
69220;SDS011;56331;51.992;20.910;2023-03-14T04:46:08;4.60;;;2.77;;
69220;SDS011;56331;51.992;20.910;2023-03-14T04:48:35;5.40;;;2.52;;
69220;SDS011;56331;51.992;20.910;2023-03-14T04:51:03;4.25;;;2.52;;
69220;SDS011;56331;51.992;20.910;2023-03-14T04:53:32;4.37;;;2.53;;
69220;SDS011;56331;51.992;20.910;2023-03-14T04:55:59;4.45;;;2.77;;
69220;SDS011;56331;51.992;20.910;2023-03-14T04:58:26;3.83;;;2.42;;
69220;SDS011;56331;51.992;20.910;2023-03-14T05:00:52;4.12;;;2.40;;
69220;SDS011;56331;51.992;20.910;2023-03-14T05:03:21;3.75;;;2.42;;
69220;SDS011;56331;51.992;20.910;2023-03-14T05:05:48;4.12;;;2.55;;
69220;SDS011;56331;51.992;20.910;2023-03-14T05:08:14;3.90;;;2.42;;
69220;SDS011;56331;51.992;20.910;2023-03-14T05:10:41;3.60;;;2.47;;
69220;SDS011;56331;51.992;20.910;2023-03-14T05:13:08;4.72;;;2.72;;
69220;SDS011;56331;51.992;20.910;2023-03-14T05:15:34;3.67;;;2.65;;
69220;SDS011;56331;51.992;20.910;2023-03-14T05:18:00;4.10;;;2.55;;
69220;SDS011;56331;51.992;20.910;2023-03-14T05:20:27;4.30;;;2.72;;
69220;SDS011;56331;51.992;20.910;2023-03-14T05:22:53;3.80;;;2.50;;
69220;SDS011;56331;51.992;20.910;2023-03-14T05:25:19;3.67;;;2.60;;
69220;SDS011;56331;51.992;20.910;2023-03-14T05:27:46;2.98;;;2.10;;
69220;SDS011;56331;51.992;20.910;2023-03-14T05:30:12;4.08;;;2.72;;
69220;SDS011;56331;51.992;20.910;2023-03-14T05:32:39;3.42;;;2.25;;
69220;SDS011;56331;51.992;20.910;2023-03-14T05:35:06;3.77;;;2.50;;
69220;SDS011;56331;51.992;20.910;2023-03-14T05:37:33;3.92;;;2.42;;
69220;SDS011;56331;51.992;20.910;2023-03-14T05:40:00;4.35;;;2.65;;
69220;SDS011;56331;51.992;20.910;2023-03-14T05:42:26;3.22;;;2.30;;
69220;SDS011;56331;51.992;20.910;2023-03-14T05:44:53;3.50;;;2.10;;
69220;SDS011;56331;51.992;20.910;2023-03-14T05:47:19;3.45;;;2.42;;
69220;SDS011;56331;51.992;20.910;2023-03-14T05:49:45;3.22;;;2.17;;
69220;SDS011;56331;51.992;20.910;2023-03-14T05:52:11;3.85;;;2.30;;
69220;SDS011;56331;51.992;20.910;2023-03-14T05:54:38;3.45;;;2.27;;
69220;SDS011;56331;51.992;20.910;2023-03-14T05:57:04;4.00;;;2.58;;
69220;SDS011;56331;51.992;20.910;2023-03-14T05:59:31;3.60;;;2.40;;
69220;SDS011;56331;51.992;20.910;2023-03-14T06:01:57;6.47;;;2.50;;
69220;SDS011;56331;51.992;20.910;2023-03-14T06:04:24;3.42;;;2.25;;
69220;SDS011;56331;51.992;20.910;2023-03-14T06:06:50;3.72;;;2.45;;
69220;SDS011;56331;51.992;20.910;2023-03-14T06:09:17;3.52;;;2.30;;
69220;SDS011;56331;51.992;20.910;2023-03-14T06:11:45;3.95;;;2.40;;
69220;SDS011;56331;51.992;20.910;2023-03-14T06:14:12;4.62;;;2.20;;
69220;SDS011;56331;51.992;20.910;2023-03-14T06:16:38;3.45;;;2.40;;
69220;SDS011;56331;51.992;20.910;2023-03-14T06:19:05;4.62;;;2.25;;
69220;SDS011;56331;51.992;20.910;2023-03-14T06:21:31;4.17;;;2.42;;
69220;SDS011;56331;51.992;20.910;2023-03-14T06:23:58;4.10;;;2.58;;
69220;SDS011;56331;51.992;20.910;2023-03-14T06:26:24;4.00;;;2.40;;
69220;SDS011;56331;51.992;20.910;2023-03-14T06:28:50;3.35;;;2.15;;
69220;SDS011;56331;51.992;20.910;2023-03-14T06:31:19;3.42;;;2.30;;
69220;SDS011;56331;51.992;20.910;2023-03-14T06:33:45;3.20;;;2.20;;
69220;SDS011;56331;51.992;20.910;2023-03-14T06:36:12;3.75;;;2.12;;
69220;SDS011;56331;51.992;20.910;2023-03-14T06:38:38;4.78;;;2.15;;
69220;SDS011;56331;51.992;20.910;2023-03-14T06:41:05;3.30;;;2.10;;
69220;SDS011;56331;51.992;20.910;2023-03-14T06:43:32;2.83;;;2.10;;
69220;SDS011;56331;51.992;20.910;2023-03-14T06:46:01;3.90;;;2.15;;
69220;SDS011;56331;51.992;20.910;2023-03-14T06:48:31;3.35;;;2.17;;
69220;SDS011;56331;51.992;20.910;2023-03-14T06:50:57;7.05;;;2.50;;
69220;SDS011;56331;51.992;20.910;2023-03-14T06:53:23;3.87;;;2.37;;
69220;SDS011;56331;51.992;20.910;2023-03-14T06:55:51;6.97;;;2.85;;
69220;SDS011;56331;51.992;20.910;2023-03-14T06:58:17;6.20;;;2.55;;
69220;SDS011;56331;51.992;20.910;2023-03-14T07:00:44;3.75;;;2.15;;
69220;SDS011;56331;51.992;20.910;2023-03-14T07:03:15;4.28;;;2.35;;
69220;SDS011;56331;51.992;20.910;2023-03-14T07:05:41;3.62;;;2.17;;
69220;SDS011;56331;51.992;20.910;2023-03-14T07:08:08;5.12;;;2.12;;
69220;SDS011;56331;51.992;20.910;2023-03-14T07:10:34;4.37;;;2.27;;
69220;SDS011;56331;51.992;20.910;2023-03-14T07:13:01;4.67;;;2.45;;
69220;SDS011;56331;51.992;20.910;2023-03-14T07:15:28;3.00;;;2.00;;
69220;SDS011;56331;51.992;20.910;2023-03-14T07:17:56;3.65;;;1.87;;
69220;SDS011;56331;51.992;20.910;2023-03-14T07:20:22;3.42;;;1.90;;
69220;SDS011;56331;51.992;20.910;2023-03-14T07:22:49;3.05;;;2.00;;
69220;SDS011;56331;51.992;20.910;2023-03-14T07:25:15;2.72;;;1.90;;
69220;SDS011;56331;51.992;20.910;2023-03-14T07:27:43;3.95;;;2.40;;
69220;SDS011;56331;51.992;20.910;2023-03-14T07:30:11;5.83;;;2.27;;
69220;SDS011;56331;51.992;20.910;2023-03-14T07:32:38;3.15;;;1.80;;
69220;SDS011;56331;51.992;20.910;2023-03-14T07:35:05;2.95;;;2.20;;
69220;SDS011;56331;51.992;20.910;2023-03-14T07:37:32;3.65;;;2.25;;
69220;SDS011;56331;51.992;20.910;2023-03-14T07:39:58;2.90;;;1.92;;
69220;SDS011;56331;51.992;20.910;2023-03-14T07:42:25;3.25;;;1.90;;
69220;SDS011;56331;51.992;20.910;2023-03-14T07:44:51;4.20;;;2.10;;
69220;SDS011;56331;51.992;20.910;2023-03-14T07:47:17;4.75;;;2.50;;
69220;SDS011;56331;51.992;20.910;2023-03-14T07:49:43;4.78;;;2.65;;
69220;SDS011;56331;51.992;20.910;2023-03-14T07:52:10;4.70;;;2.50;;
69220;SDS011;56331;51.992;20.910;2023-03-14T07:54:39;3.30;;;2.02;;
69220;SDS011;56331;51.992;20.910;2023-03-14T07:57:06;4.53;;;2.22;;
69220;SDS011;56331;51.992;20.910;2023-03-14T07:59:31;3.92;;;2.08;;
69220;SDS011;56331;51.992;20.910;2023-03-14T08:01:58;3.98;;;2.00;;
69220;SDS011;56331;51.992;20.910;2023-03-14T08:04:24;3.72;;;2.02;;
69220;SDS011;56331;51.992;20.910;2023-03-14T08:06:51;3.67;;;2.30;;
69220;SDS011;56331;51.992;20.910;2023-03-14T08:09:18;4.03;;;2.10;;
69220;SDS011;56331;51.992;20.910;2023-03-14T08:11:44;2.85;;;1.92;;
69220;SDS011;56331;51.992;20.910;2023-03-14T08:14:11;4.10;;;2.05;;
69220;SDS011;56331;51.992;20.910;2023-03-14T08:16:37;4.00;;;2.17;;
69220;SDS011;56331;51.992;20.910;2023-03-14T08:19:04;4.62;;;2.40;;
69220;SDS011;56331;51.992;20.910;2023-03-14T08:21:30;2.95;;;1.90;;
69220;SDS011;56331;51.992;20.910;2023-03-14T08:23:56;2.92;;;2.10;;
69220;SDS011;56331;51.992;20.910;2023-03-14T08:26:23;2.90;;;2.10;;
69220;SDS011;56331;51.992;20.910;2023-03-14T08:28:49;3.02;;;1.77;;
69220;SDS011;56331;51.992;20.910;2023-03-14T08:31:15;3.80;;;2.20;;
69220;SDS011;56331;51.992;20.910;2023-03-14T08:33:42;3.22;;;2.08;;
69220;SDS011;56331;51.992;20.910;2023-03-14T08:36:09;3.62;;;2.10;;
69220;SDS011;56331;51.992;20.910;2023-03-14T08:38:35;3.12;;;1.87;;
69220;SDS011;56331;51.992;20.910;2023-03-14T08:41:02;3.15;;;2.10;;
69220;SDS011;56331;51.992;20.910;2023-03-14T08:43:29;2.67;;;1.80;;
69220;SDS011;56331;51.992;20.910;2023-03-14T08:45:59;3.50;;;1.65;;
69220;SDS011;56331;51.992;20.910;2023-03-14T08:48:27;3.35;;;2.27;;
69220;SDS011;56331;51.992;20.910;2023-03-14T08:51:16;4.37;;;2.50;;
69220;SDS011;56331;51.992;20.910;2023-03-14T08:53:30;2.72;;;1.90;;
69220;SDS011;56331;51.992;20.910;2023-03-14T08:55:56;2.85;;;2.10;;
69220;SDS011;56331;51.992;20.910;2023-03-14T08:58:23;3.40;;;2.15;;
69220;SDS011;56331;51.992;20.910;2023-03-14T09:00:49;4.03;;;1.98;;
69220;SDS011;56331;51.992;20.910;2023-03-14T09:03:16;3.45;;;2.02;;
69220;SDS011;56331;51.992;20.910;2023-03-14T09:05:42;3.60;;;1.95;;
69220;SDS011;56331;51.992;20.910;2023-03-14T09:08:08;3.87;;;1.90;;
69220;SDS011;56331;51.992;20.910;2023-03-14T09:10:35;3.77;;;2.50;;
69220;SDS011;56331;51.992;20.910;2023-03-14T09:13:04;3.22;;;1.75;;
69220;SDS011;56331;51.992;20.910;2023-03-14T09:15:30;2.60;;;1.80;;
69220;SDS011;56331;51.992;20.910;2023-03-14T09:17:57;3.02;;;1.82;;
69220;SDS011;56331;51.992;20.910;2023-03-14T09:20:24;3.40;;;2.00;;
69220;SDS011;56331;51.992;20.910;2023-03-14T09:22:50;2.35;;;1.60;;
69220;SDS011;56331;51.992;20.910;2023-03-14T09:25:17;2.22;;;1.72;;
69220;SDS011;56331;51.992;20.910;2023-03-14T09:27:43;3.52;;;2.10;;
69220;SDS011;56331;51.992;20.910;2023-03-14T09:30:10;3.30;;;1.95;;
69220;SDS011;56331;51.992;20.910;2023-03-14T09:32:36;4.75;;;2.87;;
69220;SDS011;56331;51.992;20.910;2023-03-14T09:35:03;4.53;;;2.33;;
69220;SDS011;56331;51.992;20.910;2023-03-14T09:37:30;3.62;;;2.12;;
69220;SDS011;56331;51.992;20.910;2023-03-14T09:39:56;4.25;;;2.35;;
69220;SDS011;56331;51.992;20.910;2023-03-14T09:42:23;3.10;;;2.05;;
69220;SDS011;56331;51.992;20.910;2023-03-14T09:45:03;4.03;;;2.58;;
69220;SDS011;56331;51.992;20.910;2023-03-14T09:47:32;3.15;;;1.85;;
69220;SDS011;56331;51.992;20.910;2023-03-14T09:50:00;3.92;;;2.02;;
69220;SDS011;56331;51.992;20.910;2023-03-14T09:52:33;3.37;;;2.17;;
69220;SDS011;56331;51.992;20.910;2023-03-14T09:55:06;5.00;;;2.08;;
69220;SDS011;56331;51.992;20.910;2023-03-14T09:57:41;4.75;;;2.35;;
69220;SDS011;56331;51.992;20.910;2023-03-14T10:00:14;2.72;;;1.80;;
69220;SDS011;56331;51.992;20.910;2023-03-14T10:02:54;3.35;;;2.08;;
69220;SDS011;56331;51.992;20.910;2023-03-14T10:05:23;2.72;;;1.90;;
69220;SDS011;56331;51.992;20.910;2023-03-14T10:07:51;3.62;;;2.02;;
69220;SDS011;56331;51.992;20.910;2023-03-14T10:10:21;2.75;;;1.77;;
69220;SDS011;56331;51.992;20.910;2023-03-14T10:12:57;2.42;;;1.60;;
69220;SDS011;56331;51.992;20.910;2023-03-14T10:15:26;4.17;;;2.12;;
69220;SDS011;56331;51.992;20.910;2023-03-14T10:17:58;2.60;;;2.00;;
69220;SDS011;56331;51.992;20.910;2023-03-14T10:23:03;3.52;;;2.00;;
69220;SDS011;56331;51.992;20.910;2023-03-14T10:27:59;2.98;;;1.90;;
69220;SDS011;56331;51.992;20.910;2023-03-14T10:30:32;2.58;;;2.00;;
69220;SDS011;56331;51.992;20.910;2023-03-14T10:33:15;3.02;;;1.77;;
69220;SDS011;56331;51.992;20.910;2023-03-14T10:35:52;2.98;;;1.60;;
69220;SDS011;56331;51.992;20.910;2023-03-14T10:38:20;3.00;;;1.75;;
69220;SDS011;56331;51.992;20.910;2023-03-14T10:40:51;4.25;;;1.60;;
69220;SDS011;56331;51.992;20.910;2023-03-14T10:43:21;2.67;;;1.55;;
69220;SDS011;56331;51.992;20.910;2023-03-14T10:45:57;2.35;;;1.57;;
69220;SDS011;56331;51.992;20.910;2023-03-14T10:48:32;4.30;;;1.87;;
69220;SDS011;56331;51.992;20.910;2023-03-14T10:53:33;2.33;;;1.50;;
69220;SDS011;56331;51.992;20.910;2023-03-14T10:56:10;2.65;;;1.70;;
69220;SDS011;56331;51.992;20.910;2023-03-14T10:58:41;2.77;;;1.80;;
69220;SDS011;56331;51.992;20.910;2023-03-14T11:01:15;2.80;;;1.70;;
69220;SDS011;56331;51.992;20.910;2023-03-14T11:03:59;4.25;;;1.55;;
69220;SDS011;56331;51.992;20.910;2023-03-14T11:06:39;2.25;;;1.62;;
69220;SDS011;56331;51.992;20.910;2023-03-14T11:12:01;2.20;;;1.47;;
69220;SDS011;56331;51.992;20.910;2023-03-14T11:17:08;2.60;;;1.77;;
69220;SDS011;56331;51.992;20.910;2023-03-14T11:25:38;3.30;;;1.80;;
69220;SDS011;56331;51.992;20.910;2023-03-14T11:28:18;3.12;;;1.80;;
69220;SDS011;56331;51.992;20.910;2023-03-14T11:36:43;4.62;;;1.60;;
69220;SDS011;56331;51.992;20.910;2023-03-14T11:39:20;3.10;;;1.92;;
69220;SDS011;56331;51.992;20.910;2023-03-14T11:41:48;4.45;;;1.80;;
69220;SDS011;56331;51.992;20.910;2023-03-14T11:44:18;3.42;;;1.72;;
69220;SDS011;56331;51.992;20.910;2023-03-14T11:50:02;3.08;;;1.87;;
69220;SDS011;56331;51.992;20.910;2023-03-14T11:52:39;3.27;;;1.75;;
69220;SDS011;56331;51.992;20.910;2023-03-14T11:55:24;3.92;;;1.85;;
69220;SDS011;56331;51.992;20.910;2023-03-14T11:57:56;2.75;;;1.62;;
69220;SDS011;56331;51.992;20.910;2023-03-14T12:00:31;4.12;;;1.60;;
69220;SDS011;56331;51.992;20.910;2023-03-14T12:13:04;5.47;;;1.50;;
69220;SDS011;56331;51.992;20.910;2023-03-14T12:15:32;3.22;;;1.80;;
69220;SDS011;56331;51.992;20.910;2023-03-14T12:20:29;2.52;;;1.60;;
69220;SDS011;56331;51.992;20.910;2023-03-14T12:22:56;3.60;;;1.82;;
69220;SDS011;56331;51.992;20.910;2023-03-14T12:25:27;2.08;;;1.57;;
69220;SDS011;56331;51.992;20.910;2023-03-14T12:30:27;5.85;;;1.90;;
69220;SDS011;56331;51.992;20.910;2023-03-14T12:43:47;3.15;;;2.00;;
69220;SDS011;56331;51.992;20.910;2023-03-14T12:48:56;2.98;;;2.15;;
69220;SDS011;56331;51.992;20.910;2023-03-14T12:59:51;4.00;;;2.08;;
69220;SDS011;56331;51.992;20.910;2023-03-14T13:15:30;2.70;;;1.95;;
69220;SDS011;56331;51.992;20.910;2023-03-14T13:18:02;2.95;;;2.10;;
69220;SDS011;56331;51.992;20.910;2023-03-14T13:20:38;3.10;;;2.30;;
69220;SDS011;56331;51.992;20.910;2023-03-14T13:23:24;3.90;;;2.03;;
69220;SDS011;56331;51.992;20.910;2023-03-14T13:25:54;3.10;;;2.00;;
69220;SDS011;56331;51.992;20.910;2023-03-14T13:28:21;3.52;;;2.15;;
69220;SDS011;56331;51.992;20.910;2023-03-14T13:30:49;2.27;;;1.60;;
69220;SDS011;56331;51.992;20.910;2023-03-14T13:33:19;3.05;;;1.90;;
69220;SDS011;56331;51.992;20.910;2023-03-14T13:35:58;3.40;;;2.25;;
69220;SDS011;56331;51.992;20.910;2023-03-14T13:38:28;3.45;;;2.20;;
69220;SDS011;56331;51.992;20.910;2023-03-14T13:40:56;5.40;;;2.08;;
69220;SDS011;56331;51.992;20.910;2023-03-14T13:46:15;4.03;;;1.92;;
69220;SDS011;56331;51.992;20.910;2023-03-14T13:48:49;3.77;;;2.05;;
69220;SDS011;56331;51.992;20.910;2023-03-14T13:53:45;4.55;;;2.42;;
69220;SDS011;56331;51.992;20.910;2023-03-14T13:56:14;2.47;;;1.87;;
69220;SDS011;56331;51.992;20.910;2023-03-14T13:58:42;4.55;;;2.12;;
69220;SDS011;56331;51.992;20.910;2023-03-14T14:03:58;3.37;;;2.07;;
69220;SDS011;56331;51.992;20.910;2023-03-14T14:06:44;2.70;;;1.90;;
69220;SDS011;56331;51.992;20.910;2023-03-14T14:09:20;2.60;;;1.93;;
69220;SDS011;56331;51.992;20.910;2023-03-14T14:14:38;3.65;;;2.20;;
69220;SDS011;56331;51.992;20.910;2023-03-14T14:17:07;4.08;;;1.87;;
69220;SDS011;56331;51.992;20.910;2023-03-14T14:22:02;3.35;;;1.92;;
69220;SDS011;56331;51.992;20.910;2023-03-14T14:24:30;2.67;;;1.90;;
69220;SDS011;56331;51.992;20.910;2023-03-14T14:27:02;3.27;;;1.80;;
69220;SDS011;56331;51.992;20.910;2023-03-14T14:29:55;2.27;;;1.80;;
69220;SDS011;56331;51.992;20.910;2023-03-14T14:32:15;2.87;;;1.92;;
69220;SDS011;56331;51.992;20.910;2023-03-14T14:34:46;2.55;;;1.75;;
69220;SDS011;56331;51.992;20.910;2023-03-14T14:37:18;5.17;;;1.95;;
69220;SDS011;56331;51.992;20.910;2023-03-14T14:39:47;2.45;;;1.82;;
69220;SDS011;56331;51.992;20.910;2023-03-14T14:42:14;5.62;;;1.90;;
69220;SDS011;56331;51.992;20.910;2023-03-14T14:44:43;2.77;;;2.05;;
69220;SDS011;56331;51.992;20.910;2023-03-14T14:47:13;3.05;;;1.90;;
69220;SDS011;56331;51.992;20.910;2023-03-14T14:49:41;3.35;;;2.27;;
69220;SDS011;56331;51.992;20.910;2023-03-14T14:52:14;2.77;;;2.05;;
69220;SDS011;56331;51.992;20.910;2023-03-14T14:54:47;2.40;;;1.90;;
69220;SDS011;56331;51.992;20.910;2023-03-14T14:57:19;3.52;;;2.17;;
69220;SDS011;56331;51.992;20.910;2023-03-14T14:59:55;3.22;;;2.02;;
69220;SDS011;56331;51.992;20.910;2023-03-14T15:07:42;3.60;;;2.35;;
69220;SDS011;56331;51.992;20.910;2023-03-14T15:10:09;2.65;;;1.95;;
69220;SDS011;56331;51.992;20.910;2023-03-14T15:12:38;3.35;;;2.30;;
69220;SDS011;56331;51.992;20.910;2023-03-14T15:15:05;3.15;;;2.37;;
69220;SDS011;56331;51.992;20.910;2023-03-14T15:17:33;3.87;;;2.63;;
69220;SDS011;56331;51.992;20.910;2023-03-14T15:20:00;3.58;;;2.42;;
69220;SDS011;56331;51.992;20.910;2023-03-14T15:22:26;3.87;;;2.45;;
69220;SDS011;56331;51.992;20.910;2023-03-14T15:24:54;2.80;;;2.40;;
69220;SDS011;56331;51.992;20.910;2023-03-14T15:27:21;3.58;;;2.77;;
69220;SDS011;56331;51.992;20.910;2023-03-14T15:29:47;3.60;;;2.62;;
69220;SDS011;56331;51.992;20.910;2023-03-14T15:32:15;4.35;;;2.40;;
69220;SDS011;56331;51.992;20.910;2023-03-14T15:34:43;5.55;;;2.52;;
69220;SDS011;56331;51.992;20.910;2023-03-14T15:37:15;4.30;;;2.75;;
69220;SDS011;56331;51.992;20.910;2023-03-14T15:39:39;4.45;;;2.40;;
69220;SDS011;56331;51.992;20.910;2023-03-14T15:42:06;4.83;;;2.92;;
69220;SDS011;56331;51.992;20.910;2023-03-14T15:44:32;4.35;;;2.60;;
69220;SDS011;56331;51.992;20.910;2023-03-14T15:46:59;4.00;;;2.70;;
69220;SDS011;56331;51.992;20.910;2023-03-14T15:49:25;3.70;;;2.60;;
69220;SDS011;56331;51.992;20.910;2023-03-14T15:51:51;3.67;;;2.45;;
69220;SDS011;56331;51.992;20.910;2023-03-14T15:54:18;4.25;;;2.58;;
69220;SDS011;56331;51.992;20.910;2023-03-14T15:56:44;4.75;;;2.67;;
69220;SDS011;56331;51.992;20.910;2023-03-14T15:59:11;4.33;;;2.45;;
69220;SDS011;56331;51.992;20.910;2023-03-14T16:01:37;3.58;;;2.50;;
69220;SDS011;56331;51.992;20.910;2023-03-14T16:04:04;3.90;;;2.40;;
69220;SDS011;56331;51.992;20.910;2023-03-14T16:06:31;3.37;;;2.22;;
69220;SDS011;56331;51.992;20.910;2023-03-14T16:08:58;4.00;;;2.08;;
69220;SDS011;56331;51.992;20.910;2023-03-14T16:11:25;4.05;;;2.72;;
69220;SDS011;56331;51.992;20.910;2023-03-14T16:13:51;3.85;;;2.30;;
69220;SDS011;56331;51.992;20.910;2023-03-14T16:16:18;4.03;;;2.50;;
69220;SDS011;56331;51.992;20.910;2023-03-14T16:18:45;4.28;;;2.30;;
69220;SDS011;56331;51.992;20.910;2023-03-14T16:21:12;4.10;;;2.50;;
69220;SDS011;56331;51.992;20.910;2023-03-14T16:23:41;4.72;;;2.50;;
69220;SDS011;56331;51.992;20.910;2023-03-14T16:26:10;4.12;;;2.70;;
69220;SDS011;56331;51.992;20.910;2023-03-14T16:28:44;11.15;;;2.85;;
69220;SDS011;56331;51.992;20.910;2023-03-14T16:31:13;5.35;;;3.05;;
69220;SDS011;56331;51.992;20.910;2023-03-14T16:33:44;8.65;;;3.62;;
69220;SDS011;56331;51.992;20.910;2023-03-14T16:36:10;8.20;;;3.65;;